Time;durP1;ratioP1;P1;durP2;ratioP2;P2;SDS_P1;SDS_P2;PMS_P1;PMS_P2;Temp;Humidity;BMP_temperature;BMP_pressure;BME280_temperature;BME280_humidity;BME280_pressure;Samples;Min_cycle;Max_cycle;Signal;HPM_P1;HPM_P2
2023/04/15 00:01:43;;;;;;;9.02;6.93;;;;;;;7.24;100.00;100869.69;10185684;28;20050;-74
2023/04/15 00:07:29;;;;;;;12.33;8.70;;;;;;;6.99;100.00;100865.34;10180491;28;20064;-74
2023/04/15 00:12:38;;;;;;;8.75;7.45;;;;;;;6.87;100.00;100849.47;10164048;28;20489;-74
2023/04/15 00:18:31;;;;;;;8.00;7.05;;;;;;;6.90;100.00;100848.88;10186411;28;20120;-74
2023/04/15 00:36:36;;;;;;;8.68;7.18;;;;;;;7.23;100.00;100857.16;10106232;28;20061;-74
2023/04/15 00:41:41;;;;;;;8.20;6.72;;;;;;;7.18;100.00;100859.97;10170728;28;20050;-74
2023/04/15 00:46:40;;;;;;;7.47;6.35;;;;;;;7.05;100.00;100852.50;10172806;28;20043;-74
2023/04/15 00:51:39;;;;;;;8.43;7.13;;;;;;;7.03;100.00;100849.25;10181654;28;20135;-72
2023/04/15 00:56:48;;;;;;;7.90;6.78;;;;;;;7.13;100.00;100849.16;10174642;28;20473;-76
2023/04/15 01:01:45;;;;;;;7.05;6.13;;;;;;;7.10;100.00;100857.88;10189818;28;20050;-76
2023/04/15 01:06:42;;;;;;;7.63;6.45;;;;;;;7.12;100.00;100855.66;10186945;28;20070;-77
2023/04/15 01:11:42;;;;;;;7.13;6.40;;;;;;;7.32;100.00;100849.97;10170483;28;20056;-73
2023/04/15 01:22:44;;;;;;;12.05;7.60;;;;;;;7.14;100.00;100842.59;10163132;28;20070;-71
2023/04/15 01:27:41;;;;;;;8.57;7.60;;;;;;;7.02;100.00;100844.94;10185600;28;20076;-71
2023/04/15 01:32:37;;;;;;;9.07;7.72;;;;;;;6.79;100.00;100835.69;10187137;28;20049;-71
2023/04/15 01:37:35;;;;;;;10.80;7.60;;;;;;;7.03;100.00;100836.50;10179583;28;20736;-71
2023/04/15 01:42:32;;;;;;;8.98;8.10;;;;;;;7.03;100.00;100822.06;10187046;28;20045;-70
2023/04/15 01:47:29;;;;;;;9.32;8.18;;;;;;;6.92;100.00;100821.41;10173522;28;20558;-70
2023/04/15 01:52:25;;;;;;;8.88;7.97;;;;;;;7.07;100.00;100814.97;10186738;28;20512;-70
2023/04/15 01:57:22;;;;;;;11.48;9.65;;;;;;;6.99;100.00;100812.91;10174416;28;20141;-70
2023/04/15 02:02:18;;;;;;;11.73;8.32;;;;;;;6.92;100.00;100814.06;10184349;28;20428;-70
2023/04/15 02:07:15;;;;;;;9.55;8.32;;;;;;;7.18;100.00;100804.78;10181511;28;20042;-70
2023/04/15 02:12:12;;;;;;;12.95;10.63;;;;;;;6.98;100.00;100800.41;10178988;28;20508;-70
2023/04/15 02:17:08;;;;;;;12.77;10.57;;;;;;;6.91;100.00;100795.31;10186732;28;20069;-72
2023/04/15 02:22:07;;;;;;;12.73;11.02;;;;;;;7.06;100.00;100797.03;10178917;28;20058;-73
2023/04/15 02:27:04;;;;;;;13.05;10.75;;;;;;;7.07;100.00;100804.88;10178509;28;20057;-72
2023/04/15 02:32:01;;;;;;;12.18;10.35;;;;;;;7.10;100.00;100806.22;10185929;28;20092;-73
2023/04/15 02:36:57;;;;;;;13.82;10.85;;;;;;;7.06;100.00;100807.91;10192754;28;20054;-73
2023/04/15 02:41:54;;;;;;;11.73;9.93;;;;;;;6.90;100.00;100813.53;10185916;28;20058;-71
2023/04/15 02:46:52;;;;;;;13.50;10.27;;;;;;;7.11;100.00;100805.13;10187406;28;20085;-72
2023/04/15 02:51:50;;;;;;;12.07;10.32;;;;;;;7.11;100.00;100805.13;10185806;28;20050;-73
2023/04/15 02:56:46;;;;;;;14.93;10.85;;;;;;;7.04;100.00;100801.97;10168408;28;20061;-73
2023/04/15 03:01:43;;;;;;;16.70;12.43;;;;;;;7.09;100.00;100802.69;10174665;28;20513;-73
2023/04/15 03:06:39;;;;;;;16.17;12.13;;;;;;;7.11;100.00;100805.94;10179024;28;20050;-74
2023/04/15 03:11:39;;;;;;;17.85;13.57;;;;;;;7.14;100.00;100807.25;10182083;28;20046;-74
2023/04/15 03:16:36;;;;;;;16.38;13.23;;;;;;;7.17;100.00;100803.94;10186871;28;20076;-75
2023/04/15 03:21:32;;;;;;;21.70;16.02;;;;;;;7.11;100.00;100805.94;10194970;28;20052;-74
2023/04/15 03:26:30;;;;;;;19.88;14.73;;;;;;;7.12;100.00;100801.28;10183566;28;20046;-74
2023/04/15 03:31:27;;;;;;;20.10;15.27;;;;;;;7.24;100.00;100796.25;10197087;28;20177;-74
2023/04/15 03:36:23;;;;;;;28.30;17.02;;;;;;;7.07;100.00;100798.66;10191121;28;20566;-74
2023/04/15 03:41:21;;;;;;;21.33;15.90;;;;;;;7.12;100.00;100806.72;10187609;28;20054;-74
2023/04/15 03:46:20;;;;;;;21.73;15.65;;;;;;;7.05;100.00;100800.84;10190500;28;20045;-74
2023/04/15 03:51:17;;;;;;;22.70;15.98;;;;;;;7.11;100.00;100789.63;10187603;28;20052;-75
2023/04/15 03:57:07;;;;;;;22.75;15.15;;;;;;;6.99;100.00;100802.03;10162059;28;20070;-73
2023/04/15 04:09:13;;;;;;;26.20;16.33;;;;;;;6.97;100.00;100798.78;9917163;29;20573;-73
2023/04/15 04:14:34;;;;;;;24.10;15.68;;;;;;;7.13;100.00;100808.38;9910189;29;20718;-73
2023/04/15 04:19:30;;;;;;;21.95;15.27;;;;;;;7.09;100.00;100801.88;10073995;28;20797;-74
2023/04/15 04:24:27;;;;;;;21.17;14.65;;;;;;;7.02;100.00;100809.59;10185939;28;20132;-72
2023/04/15 04:29:29;;;;;;;24.48;17.20;;;;;;;7.04;100.00;100810.91;10191642;28;20053;-78
2023/04/15 04:34:27;;;;;;;22.23;15.18;;;;;;;7.11;100.00;100824.16;10184568;28;20050;-78
2023/04/15 04:39:27;;;;;;;24.48;16.75;;;;;;;7.24;100.00;100809.84;10184976;28;20064;-77
2023/04/15 04:44:38;;;;;;;26.63;17.52;;;;;;;7.08;100.00;100816.59;10173436;28;20419;-77
2023/04/15 04:50:02;;;;;;;30.52;19.42;;;;;;;7.21;100.00;100815.84;10152858;28;21366;-72
2023/04/15 04:54:58;;;;;;;34.45;22.13;;;;;;;7.16;100.00;100814.00;10189384;28;20141;-71
2023/04/15 04:59:55;;;;;;;33.80;21.75;;;;;;;7.18;100.00;100805.56;10180776;28;20133;-71
2023/04/15 05:04:53;;;;;;;49.05;26.45;;;;;;;7.02;100.00;100806.88;10188009;28;20056;-71
2023/04/15 05:09:49;;;;;;;40.38;23.65;;;;;;;7.12;100.00;100817.59;10180690;28;20108;-71
2023/04/15 05:14:46;;;;;;;47.58;26.70;;;;;;;6.99;100.00;100812.91;10188787;28;20069;-71
2023/04/15 05:19:42;;;;;;;43.28;24.77;;;;;;;7.20;100.00;100811.53;10185883;28;20082;-71
2023/04/15 05:56:07;;;;;;;41.17;25.42;;;;;;;7.32;100.00;100833.66;9900083;29;20507;-78
2023/04/15 06:02:08;;;;;;;43.90;27.15;;;;;;;7.30;100.00;100833.13;9992917;29;20036;-78
2023/04/15 06:07:35;;;;;;;39.03;25.48;;;;;;;7.42;100.00;100848.22;9887053;29;20064;-77
2023/04/15 06:12:32;;;;;;;44.17;27.20;;;;;;;7.35;100.00;100854.81;9948630;28;20556;-73
2023/04/15 06:35:03;;;;;;;40.70;27.38;;;;;;;7.62;100.00;100864.25;10257096;22;20066;-72
2023/04/15 06:40:00;;;;;;;48.13;28.70;;;;;;;7.41;100.00;100860.22;10175769;28;20146;-71
2023/04/15 06:44:56;;;;;;;57.08;32.33;;;;;;;7.70;100.00;100866.31;10161308;28;20046;-71
2023/04/15 06:50:20;;;;;;;46.17;29.35;;;;;;;7.91;100.00;100866.81;10172005;22;20156;-70
2023/04/15 06:55:17;;;;;;;39.17;26.75;;;;;;;7.83;100.00;100869.41;10141668;28;20047;-71
2023/04/15 07:00:14;;;;;;;48.28;30.40;;;;;;;7.89;100.00;100869.03;10158918;28;20051;-71
2023/04/15 07:05:11;;;;;;;51.55;32.92;;;;;;;7.70;100.00;100871.75;10143018;28;20107;-71
2023/04/15 07:10:08;;;;;;;41.15;28.45;;;;;;;7.76;100.00;100878.75;10148641;28;20132;-69
2023/04/15 07:15:05;;;;;;;65.68;38.38;;;;;;;7.52;100.00;100886.16;10146141;28;20059;-69
2023/04/15 07:20:03;;;;;;;53.40;32.42;;;;;;;7.79;100.00;100896.41;10157892;28;20065;-69
2023/04/15 07:25:00;;;;;;;54.50;32.40;;;;;;;7.66;100.00;100881.63;10152269;28;20051;-68
2023/04/15 07:29:56;;;;;;;53.70;31.77;;;;;;;7.75;100.00;100890.75;10193929;22;20054;-69
2023/04/15 07:34:53;;;;;;;54.63;34.42;;;;;;;7.93;100.00;100891.03;10147306;28;20078;-69
2023/04/15 07:40:41;;;;;;;54.53;33.05;;;;;;;7.97;100.00;100908.41;10214071;23;20054;-70
2023/04/15 07:45:37;;;;;;;48.22;29.88;;;;;;;7.94;100.00;100904.34;10180632;28;20127;-69
2023/04/15 07:50:34;;;;;;;45.22;29.80;;;;;;;8.16;100.00;100901.00;10218111;28;20049;-68
2023/04/15 07:55:30;;;;;;;48.63;28.92;;;;;;;8.29;100.00;100915.00;10244227;28;20459;-68
2023/04/15 08:00:27;;;;;;;51.13;31.77;;;;;;;8.19;100.00;100911.31;10244138;28;21124;-68
2023/04/15 08:05:24;;;;;;;47.47;32.20;;;;;;;8.47;100.00;100916.91;10242343;28;20050;-68
2023/04/15 08:10:21;;;;;;;41.40;29.40;;;;;;;8.39;100.00;100917.53;10239728;28;20059;-68
2023/04/15 08:15:17;;;;;;;43.90;29.60;;;;;;;8.41;100.00;100924.34;10249456;28;20103;-68
2023/04/15 08:20:14;;;;;;;47.88;29.65;;;;;;;8.63;100.00;100931.03;10246756;28;20128;-68
2023/04/15 08:25:10;;;;;;;59.88;36.05;;;;;;;8.43;100.00;100927.56;10240722;28;20131;-68
2023/04/15 08:30:07;;;;;;;48.33;31.23;;;;;;;8.64;100.00;100932.69;10260577;28;20060;-68
2023/04/15 08:35:05;;;;;;;56.55;34.40;;;;;;;8.47;100.00;100933.25;10256439;28;20111;-68
2023/04/15 08:40:01;;;;;;;46.85;32.55;;;;;;;8.78;100.00;100938.16;10246869;28;20057;-68
2023/04/15 08:45:00;;;;;;;46.28;31.25;;;;;;;8.95;100.00;100943.81;10259165;28;20127;-68
2023/04/15 08:49:57;;;;;;;46.38;31.95;;;;;;;9.02;100.00;100938.78;10253458;28;20515;-68
2023/04/15 08:54:59;;;;;;;50.05;31.52;;;;;;;8.71;100.00;100943.19;10257459;28;20469;-68
2023/04/15 08:59:56;;;;;;;46.65;30.63;;;;;;;8.98;100.00;100940.50;10259966;28;20064;-67
2023/04/15 09:04:53;;;;;;;55.78;34.42;;;;;;;9.05;100.00;100954.56;10259500;28;20092;-68
2023/04/15 09:09:50;;;;;;;45.40;32.03;;;;;;;9.29;100.00;100961.75;10254192;28;20139;-68
2023/04/15 09:14:48;;;;;;;52.50;32.55;;;;;;;9.10;100.00;100969.19;10245853;28;20137;-68
2023/04/15 09:19:44;;;;;;;48.22;31.40;;;;;;;9.34;100.00;100972.56;10264074;28;20052;-67
2023/04/15 09:24:42;;;;;;;44.53;30.90;;;;;;;9.63;100.00;100963.22;10246600;28;20422;-68
2023/04/15 09:29:40;;;;;;;54.25;34.60;;;;;;;9.93;100.00;100971.88;10242619;28;20132;-68
2023/04/15 09:34:37;;;;;;;43.47;31.08;;;;;;;10.13;100.00;100960.50;10253050;28;20041;-68
2023/04/15 09:39:50;;;;;;;56.28;36.03;;;;;;;9.94;100.00;100963.38;10246403;28;20059;-67
2023/04/15 09:44:47;;;;;;;44.10;30.95;;;;;;;10.31;100.00;100961.47;10265316;28;20503;-68
2023/04/15 09:49:55;;;;;;;48.75;30.15;;;;;;;10.52;100.00;100968.06;10237579;28;20791;-68
2023/04/15 09:54:54;;;;;;;38.08;27.80;;;;;;;10.84;100.00;100968.09;10251635;28;20064;-69
2023/04/15 09:59:51;;;;;;;42.63;27.75;;;;;;;11.49;100.00;100967.41;10259542;28;20087;-72
2023/04/15 10:04:48;;;;;;;36.65;24.58;;;;;;;10.47;100.00;100981.06;10245111;28;20080;-72
2023/04/15 10:09:45;;;;;;;37.08;25.58;;;;;;;10.52;100.00;100986.41;10245926;28;20057;-71
2023/04/15 10:14:43;;;;;;;37.88;27.00;;;;;;;11.36;100.00;100979.28;10252384;28;20045;-72
2023/04/15 10:19:40;;;;;;;35.95;25.23;;;;;;;11.35;100.00;100988.63;10242809;28;20088;-72
2023/04/15 10:24:37;;;;;;;29.63;21.90;;;;;;;12.27;100.00;100988.66;10248960;28;20080;-70
2023/04/15 10:29:34;;;;;;;28.67;21.42;;;;;;;11.86;100.00;100997.28;10253316;28;20075;-72
2023/04/15 10:34:31;;;;;;;24.23;19.08;;;;;;;12.03;100.00;100996.56;10245435;28;20179;-72
2023/04/15 10:39:39;;;;;;;30.50;19.85;;;;;;;12.68;100.00;100994.78;10268022;28;20049;-72
2023/04/15 10:44:37;;;;;;;25.08;19.15;;;;;;;12.53;100.00;101004.28;10247510;28;20111;-72
2023/04/15 10:49:41;;;;;;;24.60;18.50;;;;;;;13.98;100.00;100997.00;10248442;28;20053;-72
2023/04/15 10:54:38;;;;;;;19.77;16.35;;;;;;;16.12;100.00;100986.19;10260832;28;20446;-71
2023/04/15 10:59:36;;;;;;;18.42;16.38;;;;;;;15.93;100.00;100989.59;10251652;28;20649;-72
2023/04/15 11:04:52;;;;;;;21.02;18.63;;;;;;;14.59;100.00;100998.47;10261025;28;20631;-72
2023/04/15 11:09:48;;;;;;;15.70;14.02;;;;;;;14.15;100.00;101000.75;10244522;28;20045;-72
2023/04/15 11:14:45;;;;;;;16.67;12.85;;;;;;;13.81;100.00;101008.13;10248010;28;20477;-71
2023/04/15 11:19:42;;;;;;;15.93;13.90;;;;;;;13.99;100.00;101009.59;10266371;28;20163;-71
2023/04/15 11:24:50;;;;;;;11.00;9.90;;;;;;;13.47;100.00;101007.16;10244341;28;20041;-71
2023/04/15 11:29:47;;;;;;;14.48;12.98;;;;;;;13.29;100.00;101019.34;10248866;28;20047;-71
2023/04/15 11:34:45;;;;;;;14.90;13.38;;;;;;;13.43;100.00;101020.72;10259316;28;20461;-71
2023/04/15 11:39:41;;;;;;;17.02;14.45;;;;;;;13.35;100.00;101035.31;10249457;28;20057;-71
2023/04/15 11:44:38;;;;;;;16.08;14.38;;;;;;;13.19;100.00;101037.75;10255652;28;20037;-72
2023/04/15 11:49:38;;;;;;;18.65;14.48;;;;;;;13.32;100.00;101051.63;10259520;28;20132;-71
2023/04/15 11:54:36;;;;;;;15.25;13.73;;;;;;;15.31;100.00;101049.38;10253697;28;20466;-71
2023/04/15 11:59:42;;;;;;;15.00;13.50;;;;;;;14.36;100.00;101053.81;10260725;28;20530;-71
2023/04/15 12:04:41;;;;;;;13.38;12.13;;;;;;;13.86;100.00;101060.13;10247246;28;20053;-71
2023/04/15 12:09:38;;;;;;;16.35;12.95;;;;;;;13.92;100.00;101053.28;10247445;28;20056;-71
2023/04/15 12:14:37;;;;;;;16.58;13.35;;;;;;;13.66;100.00;101067.19;10252086;28;20046;-71
2023/04/15 12:19:40;;;;;;;12.55;11.32;;;;;;;13.20;100.00;101072.31;10264272;28;20041;-71
2023/04/15 12:24:37;;;;;;;14.77;12.88;;;;;;;13.34;100.00;101077.63;10251818;28;20417;-71
2023/04/15 12:29:35;;;;;;;12.65;11.05;;;;;;;13.44;100.00;101090.22;10256858;28;20048;-72
2023/04/15 12:34:44;;;;;;;13.50;11.52;;;;;;;13.42;100.00;101095.22;10263698;28;20136;-71
2023/04/15 12:39:42;;;;;;;14.20;12.48;;;;;;;13.32;100.00;101109.28;10250514;28;20129;-72
2023/04/15 12:44:39;;;;;;;16.75;12.27;;;;;;;13.23;100.00;101104.63;10253741;28;20037;-71
2023/04/15 12:49:36;;;;;;;14.38;12.88;;;;;;;13.29;100.00;101115.44;10254214;28;20536;-71
2023/04/15 12:54:33;;;;;;;11.70;10.52;;;;;;;13.11;100.00;101115.47;10256759;28;20069;-71
2023/04/15 12:59:30;;;;;;;13.07;11.18;;;;;;;13.40;100.00;101117.53;10266941;28;20122;-72
2023/04/15 13:04:29;;;;;;;13.95;12.55;;;;;;;13.40;100.00;101113.97;10254521;28;20041;-71
2023/04/15 13:09:26;;;;;;;16.80;11.95;;;;;;;13.68;100.00;101115.16;10266365;28;20059;-72
2023/04/15 13:14:22;;;;;;;11.85;10.75;;;;;;;13.67;100.00;101124.56;10258299;28;20140;-71
2023/04/15 13:19:19;;;;;;;16.77;13.43;;;;;;;13.45;100.00;101131.06;10261668;28;20089;-72
2023/04/15 13:24:15;;;;;;;14.85;12.88;;;;;;;13.81;100.00;101129.03;10240568;28;20125;-74
2023/04/15 13:29:12;;;;;;;13.35;12.00;;;;;;;14.06;100.00;101141.88;10254000;28;20084;-71
2023/04/15 13:34:09;;;;;;;12.48;10.60;;;;;;;14.39;100.00;101149.44;10257776;28;20076;-68
2023/04/15 13:39:05;;;;;;;13.35;12.05;;;;;;;14.32;100.00;101143.66;10259846;28;20049;-69
2023/04/15 13:44:02;;;;;;;13.35;11.68;;;;;;;14.25;100.00;101148.84;10251210;28;20530;-69
2023/04/15 13:48:59;;;;;;;13.45;12.15;;;;;;;14.80;100.00;101141.56;10266065;28;20092;-68
2023/04/15 13:53:56;;;;;;;13.00;11.65;;;;;;;14.78;100.00;101149.34;10246312;28;20810;-67
2023/04/15 13:58:57;;;;;;;12.73;10.65;;;;;;;16.33;100.00;101156.28;10240583;28;20423;-68
2023/04/15 14:03:54;;;;;;;12.20;11.13;;;;;;;18.30;100.00;101161.75;10236373;28;20527;-68
2023/04/15 14:08:51;;;;;;;14.65;11.10;;;;;;;18.33;100.00;101177.63;10241765;28;20059;-67
2023/04/15 14:13:48;;;;;;;10.60;9.48;;;;;;;18.92;100.00;101178.59;10239958;28;20514;-67
2023/04/15 14:18:45;;;;;;;11.23;10.13;;;;;;;18.41;100.00;101178.59;10241005;28;20058;-67
2023/04/15 14:23:43;;;;;;;13.60;12.00;;;;;;;17.78;100.00;101180.22;10240346;28;20056;-66
2023/04/15 14:28:40;;;;;;;12.82;11.52;;;;;;;18.07;100.00;101192.03;10233620;28;20079;-67
2023/04/15 14:33:36;;;;;;;13.32;12.00;;;;;;;17.80;100.00;101199.19;10245863;28;20049;-67
2023/04/15 14:38:37;;;;;;;12.57;10.57;;;;;;;18.57;100.00;101204.31;10258280;28;20061;-67
2023/04/15 14:43:34;;;;;;;13.35;10.00;;;;;;;18.06;100.00;101212.56;10241719;28;20509;-67
2023/04/15 14:48:31;;;;;;;10.25;9.25;;;;;;;17.58;100.00;101214.44;10262413;28;20087;-68
2023/04/15 14:53:27;;;;;;;10.45;9.25;;;;;;;16.45;100.00;101236.31;10247798;28;20069;-68
2023/04/15 14:58:24;;;;;;;10.88;9.70;;;;;;;15.91;100.00;101228.22;10246449;28;20058;-67
2023/04/15 15:03:20;;;;;;;11.10;10.00;;;;;;;16.28;100.00;101242.06;10256623;28;20064;-67
2023/04/15 15:08:17;;;;;;;10.25;9.27;;;;;;;16.16;100.00;101242.88;10262013;28;20049;-67
2023/04/15 15:13:14;;;;;;;12.18;10.98;;;;;;;16.78;100.00;101249.19;10259850;28;20136;-67
2023/04/15 15:18:11;;;;;;;11.93;10.57;;;;;;;15.83;100.00;101259.44;10267892;28;20557;-67
2023/04/15 15:23:07;;;;;;;11.52;10.25;;;;;;;15.61;100.00;101258.66;10255514;28;20110;-67
2023/04/15 15:28:04;;;;;;;10.60;9.57;;;;;;;15.26;100.00;101269.19;10261154;28;20056;-67
2023/04/15 15:33:01;;;;;;;11.52;9.73;;;;;;;15.47;100.00;101258.16;10261952;28;20064;-67
2023/04/15 15:37:59;;;;;;;11.88;10.65;;;;;;;14.99;100.00;101271.31;10263808;28;20049;-66
2023/04/15 15:42:55;;;;;;;13.10;11.27;;;;;;;14.47;100.00;101272.38;10271713;28;20072;-67
2023/04/15 15:47:52;;;;;;;13.02;10.70;;;;;;;14.25;100.00;101270.69;10256227;28;20474;-67
2023/04/15 15:52:49;;;;;;;14.63;11.68;;;;;;;13.83;100.00;101280.66;10251426;28;20489;-67
2023/04/15 15:57:45;;;;;;;13.20;10.55;;;;;;;13.96;100.00;101296.16;10261756;28;20072;-67
2023/04/15 16:02:42;;;;;;;13.38;11.93;;;;;;;13.14;100.00;101304.25;10242733;28;20072;-66
2023/04/15 16:07:41;;;;;;;13.10;11.15;;;;;;;13.19;100.00;101306.84;10258469;28;20041;-65
2023/04/15 16:12:38;;;;;;;15.00;12.80;;;;;;;13.19;100.00;101311.53;10255675;28;20084;-69
2023/04/15 16:17:35;;;;;;;13.30;11.48;;;;;;;13.06;100.00;101318.75;10267936;28;20053;-68
2023/04/15 16:22:33;;;;;;;16.30;12.50;;;;;;;12.90;100.00;101332.09;10263924;28;20141;-68
2023/04/15 16:27:30;;;;;;;18.75;14.02;;;;;;;12.79;100.00;101330.81;10251512;28;20052;-69
2023/04/15 16:32:26;;;;;;;15.63;12.80;;;;;;;12.68;100.00;101340.44;10259941;28;20080;-68
2023/04/15 16:37:23;;;;;;;24.30;14.18;;;;;;;12.53;100.00;101344.41;10267947;28;20051;-68
2023/04/15 16:42:19;;;;;;;18.80;14.95;;;;;;;12.39;100.00;101353.56;10248201;28;20045;-68
2023/04/15 16:47:16;;;;;;;16.20;14.18;;;;;;;12.55;100.00;101364.09;10258118;28;20132;-68
2023/04/15 16:52:13;;;;;;;18.55;15.73;;;;;;;12.39;100.00;101361.78;10252198;28;20064;-68
2023/04/15 16:57:09;;;;;;;17.30;14.45;;;;;;;12.49;100.00;101370.88;10262558;28;20053;-69
2023/04/15 17:02:10;;;;;;;20.65;16.02;;;;;;;11.95;100.00;101387.25;10257030;28;20144;-68
2023/04/15 17:07:07;;;;;;;20.52;15.77;;;;;;;11.92;100.00;101385.97;10253368;28;20049;-66
2023/04/15 17:12:05;;;;;;;20.08;15.00;;;;;;;11.81;100.00;101384.53;10258409;28;20503;-69
2023/04/15 17:17:01;;;;;;;16.52;14.80;;;;;;;11.66;100.00;101393.13;10254513;28;20041;-68
2023/04/15 17:21:58;;;;;;;18.65;15.25;;;;;;;11.56;100.00;101396.91;10252311;28;20057;-68
2023/04/15 17:26:55;;;;;;;23.95;15.32;;;;;;;11.63;100.00;101402.78;10251941;28;20053;-67
2023/04/15 17:31:53;;;;;;;19.05;14.90;;;;;;;11.87;100.00;101405.25;10257316;28;20531;-69
2023/04/15 17:36:52;;;;;;;17.17;15.27;;;;;;;11.82;100.00;101415.50;10246596;28;20053;-69
2023/04/15 17:41:48;;;;;;;18.33;15.05;;;;;;;11.91;100.00;101414.50;10240922;28;20061;-69
2023/04/15 17:46:46;;;;;;;20.70;16.00;;;;;;;11.77;100.00;101421.91;10235828;28;20057;-69
2023/04/15 17:51:43;;;;;;;20.75;16.98;;;;;;;11.20;100.00;101430.50;10238124;28;20578;-69
2023/04/15 17:56:40;;;;;;;25.50;16.63;;;;;;;11.33;100.00;101428.88;10222656;28;20590;-69
2023/04/15 18:01:37;;;;;;;22.52;15.38;;;;;;;11.18;100.00;101431.94;10241200;28;20057;-69
2023/04/15 18:06:34;;;;;;;21.90;18.33;;;;;;;10.99;100.00;101446.50;10252184;28;20053;-69
2023/04/15 18:11:34;;;;;;;24.23;17.85;;;;;;;10.90;100.00;101449.13;10254618;28;20054;-69
2023/04/15 18:16:31;;;;;;;22.05;17.23;;;;;;;10.88;100.00;101461.50;10259617;28;20544;-69
2023/04/15 18:21:28;;;;;;;25.20;18.08;;;;;;;10.89;100.00;101468.59;10250357;28;20053;-69
2023/04/15 18:26:24;;;;;;;24.67;20.25;;;;;;;10.47;100.00;101473.97;10251971;28;20041;-69
2023/04/15 18:31:21;;;;;;;24.02;19.33;;;;;;;10.56;100.00;101482.31;10263120;28;20059;-69
2023/04/15 18:36:18;;;;;;;23.08;18.77;;;;;;;10.52;100.00;101495.75;10252368;28;20149;-69
2023/04/15 18:41:17;;;;;;;22.23;17.35;;;;;;;10.67;100.00;101502.88;10260626;28;20056;-67
2023/04/15 18:46:15;;;;;;;19.35;16.75;;;;;;;10.77;100.00;101512.84;10263774;28;20136;-68
2023/04/15 18:51:12;;;;;;;23.98;16.75;;;;;;;10.42;100.00;101511.50;10263390;28;20059;-68
2023/04/15 18:56:09;;;;;;;22.63;16.83;;;;;;;10.39;100.00;101532.03;10269151;28;20060;-68
2023/04/15 19:01:05;;;;;;;23.40;16.58;;;;;;;10.02;100.00;101530.09;10255835;28;20052;-68
2023/04/15 19:06:02;;;;;;;20.83;16.67;;;;;;;9.96;100.00;101539.47;10253807;28;20139;-67
2023/04/15 19:10:59;;;;;;;22.85;16.30;;;;;;;10.00;100.00;101541.31;10269068;28;20136;-68
2023/04/15 19:15:56;;;;;;;25.30;17.52;;;;;;;9.84;100.00;101548.06;10262770;28;20052;-68
2023/04/15 19:20:54;;;;;;;23.17;18.55;;;;;;;9.81;100.00;101560.38;10259594;28;20064;-68
2023/04/15 19:25:51;;;;;;;23.35;17.25;;;;;;;9.89;100.00;101570.69;10261444;28;20165;-68
2023/04/15 19:30:47;;;;;;;22.80;16.80;;;;;;;9.82;100.00;101578.41;10258673;28;20068;-68
2023/04/15 19:35:48;;;;;;;20.08;15.75;;;;;;;9.92;100.00;101584.88;10269543;28;20065;-68
2023/04/15 19:40:45;;;;;;;19.90;16.05;;;;;;;9.92;100.00;101593.06;10253570;28;20049;-69
2023/04/15 19:45:44;;;;;;;24.92;16.27;;;;;;;9.68;100.00;101604.81;10253959;28;20112;-69
2023/04/15 19:50:41;;;;;;;20.63;15.90;;;;;;;9.76;100.00;101606.88;10258497;28;20128;-68
2023/04/15 19:55:38;;;;;;;23.23;16.35;;;;;;;9.76;100.00;101612.34;10261256;28;20136;-68
2023/04/15 20:00:35;;;;;;;23.38;16.88;;;;;;;9.50;100.00;101616.47;10261715;28;20422;-69
2023/04/15 20:05:32;;;;;;;22.52;16.98;;;;;;;9.52;100.00;101615.06;10254539;28;20049;-69
2023/04/15 20:10:30;;;;;;;27.90;17.60;;;;;;;9.66;100.00;101609.75;10261929;28;20053;-69
2023/04/15 20:15:27;;;;;;;22.85;17.02;;;;;;;9.54;100.00;101614.75;10248577;28;20069;-69
2023/04/15 20:20:24;;;;;;;23.60;16.85;;;;;;;9.52;100.00;101622.47;10254506;28;20048;-69
2023/04/15 20:25:20;;;;;;;20.85;16.23;;;;;;;9.52;100.00;101622.47;10268335;28;20115;-69
2023/04/15 20:30:17;;;;;;;20.77;16.60;;;;;;;9.10;100.00;101632.94;10267238;28;20061;-68
2023/04/15 20:35:14;;;;;;;23.15;15.82;;;;;;;9.20;100.00;101635.56;10262069;28;20357;-69
2023/04/15 20:40:13;;;;;;;22.08;16.58;;;;;;;9.23;100.00;101636.91;10250474;28;20057;-69
2023/04/15 20:45:11;;;;;;;21.80;16.20;;;;;;;9.37;100.00;101637.84;10256529;28;21132;-69
2023/04/15 20:50:08;;;;;;;21.70;15.70;;;;;;;9.08;100.00;101645.22;10264566;28;20095;-69
2023/04/15 20:55:08;;;;;;;23.40;15.43;;;;;;;9.02;100.00;101647.97;10257482;28;20049;-69
2023/04/15 21:00:08;;;;;;;23.55;15.30;;;;;;;8.80;100.00;101653.88;10263535;28;20067;-69
2023/04/15 21:05:05;;;;;;;25.08;16.88;;;;;;;8.89;100.00;101654.09;10259934;28;20057;-69
2023/04/15 21:10:01;;;;;;;28.23;14.85;;;;;;;8.88;100.00;101652.44;10261899;28;20462;-69
2023/04/15 21:14:58;;;;;;;21.65;16.40;;;;;;;8.74;100.00;101656.91;10244216;28;20722;-69
2023/04/15 21:19:54;;;;;;;21.02;14.27;;;;;;;8.66;100.00;101660.22;10244543;28;20588;-69
2023/04/15 21:24:51;;;;;;;22.40;15.68;;;;;;;8.66;100.00;101671.13;10241044;28;20132;-72
2023/04/15 21:29:48;;;;;;;23.40;14.68;;;;;;;8.48;100.00;101681.59;10259965;28;20053;-72
2023/04/15 21:34:45;;;;;;;21.13;14.65;;;;;;;8.46;100.00;101683.78;10251614;28;20050;-74
2023/04/15 21:39:43;;;;;;;23.33;16.83;;;;;;;8.45;100.00;101684.88;10245311;28;20064;-73
2023/04/15 21:44:41;;;;;;;23.63;16.35;;;;;;;8.62;100.00;101682.59;10250488;28;20055;-73
2023/04/15 21:49:38;;;;;;;28.35;15.20;;;;;;;8.61;100.00;101691.88;10262416;28;20049;-74
2023/04/15 21:54:36;;;;;;;24.00;16.35;;;;;;;8.35;100.00;101698.50;10250233;28;20052;-72
2023/04/15 21:59:33;;;;;;;22.70;16.35;;;;;;;8.31;100.00;101702.88;10253009;28;20041;-73
2023/04/15 22:04:29;;;;;;;25.65;17.42;;;;;;;8.41;100.00;101702.88;10261687;28;20132;-73
2023/04/15 22:09:26;;;;;;;21.73;15.00;;;;;;;8.32;100.00;101707.25;10254233;28;20045;-73
2023/04/15 22:14:24;;;;;;;24.80;15.82;;;;;;;8.31;100.00;101708.31;10250357;28;20049;-74
2023/04/15 22:19:21;;;;;;;24.08;14.73;;;;;;;8.48;100.00;101708.03;10254884;28;20053;-74
2023/04/15 22:24:18;;;;;;;20.58;14.50;;;;;;;8.45;100.00;101712.13;10250427;28;20569;-74
2023/04/15 22:29:35;;;;;;;24.60;15.60;;;;;;;8.40;100.00;101712.97;10264194;28;20076;-74
2023/04/15 22:34:32;;;;;;;22.30;16.33;;;;;;;8.40;100.00;101714.84;10250975;28;20041;-73
2023/04/15 22:39:29;;;;;;;29.23;18.23;;;;;;;8.07;100.00;101716.31;10246167;28;20053;-74
2023/04/15 22:44:25;;;;;;;23.65;16.23;;;;;;;8.28;100.00;101714.34;10264508;28;20137;-72
2023/04/15 22:49:22;;;;;;;24.25;16.40;;;;;;;8.26;100.00;101713.78;10261776;28;20049;-69
2023/04/15 22:54:19;;;;;;;23.88;16.02;;;;;;;8.25;100.00;101726.59;10253633;28;20068;-70
2023/04/15 22:59:16;;;;;;;22.48;14.82;;;;;;;8.31;100.00;101735.56;10260732;28;20045;-72
2023/04/15 23:04:12;;;;;;;29.65;18.58;;;;;;;7.90;100.00;101738.41;10248280;28;20049;-72
2023/04/15 23:09:22;;;;;;;24.58;16.30;;;;;;;8.13;100.00;101745.97;10253848;28;20123;-72
2023/04/15 23:14:19;;;;;;;23.05;16.27;;;;;;;8.02;100.00;101747.09;10246283;28;20116;-72
2023/04/15 23:19:17;;;;;;;24.25;16.88;;;;;;;7.95;100.00;101754.72;10254812;28;20053;-72
2023/04/15 23:24:21;;;;;;;27.23;17.88;;;;;;;7.90;100.00;101773.81;10241420;28;20038;-72
2023/04/15 23:29:22;;;;;;;24.65;16.67;;;;;;;8.01;100.00;101770.00;10259901;28;20054;-72
2023/04/15 23:34:44;;;;;;;25.10;18.23;;;;;;;7.82;100.00;101774.34;10263845;28;20076;-72